Time;durP1;ratioP1;P1;durP2;ratioP2;P2;SDS_P1;SDS_P2;PMS_P1;PMS_P2;Temp;Humidity;BMP_temperature;BMP_pressure;BME280_temperature;BME280_humidity;BME280_pressure;Samples;Min_cycle;Max_cycle;Signal;HPM_P1;HPM_P2
2022/10/26 00:01:26;;;;;;;4.22;1.98;;;;;;;;;;4956046;29;20047;-79
2022/10/26 00:03:54;;;;;;;4.80;1.92;;;;;;;;;;4956316;29;20154;-79
2022/10/26 00:06:21;;;;;;;2.60;1.70;;;;;;;;;;4956328;29;20035;-79
2022/10/26 00:08:47;;;;;;;4.20;2.00;;;;;;;;;;4955974;29;20050;-80
2022/10/26 00:11:13;;;;;;;3.90;1.58;;;;;;;;;;4956328;29;20038;-80
2022/10/26 00:13:39;;;;;;;3.08;1.90;;;;;;;;;;4956260;29;20027;-79
2022/10/26 00:16:17;;;;;;;2.17;1.80;;;;;;;;;;4957345;28;20058;-80
2022/10/26 00:18:43;;;;;;;3.55;1.80;;;;;;;;;;4957226;28;20051;-80
2022/10/26 00:21:09;;;;;;;4.32;2.08;;;;;;;;;;4956041;29;20097;-80
2022/10/26 00:23:34;;;;;;;3.83;1.80;;;;;;;;;;4955900;29;20046;-79
2022/10/26 00:26:00;;;;;;;2.40;1.67;;;;;;;;;;4956045;29;20038;-80
2022/10/26 00:28:25;;;;;;;2.70;1.85;;;;;;;;;;4956866;28;20478;-80
2022/10/26 00:30:51;;;;;;;5.78;2.00;;;;;;;;;;4954957;28;20035;-80
2022/10/26 00:33:16;;;;;;;2.70;1.90;;;;;;;;;;4955584;29;20058;-80
2022/10/26 00:35:41;;;;;;;4.43;1.83;;;;;;;;;;4955813;29;20035;-80
2022/10/26 00:38:07;;;;;;;4.45;1.92;;;;;;;;;;4939727;28;20046;-79
2022/10/26 00:40:32;;;;;;;5.22;1.90;;;;;;;;;;4955484;29;20376;-79
2022/10/26 00:43:00;;;;;;;2.20;1.45;;;;;;;;;;4956794;28;20387;-80
2022/10/26 00:45:28;;;;;;;3.38;2.15;;;;;;;;;;4955471;29;20028;-80
2022/10/26 00:48:04;;;;;;;4.07;1.90;;;;;;;;;;4971432;28;20158;-80
2022/10/26 00:50:36;;;;;;;5.15;1.90;;;;;;;;;;4955224;28;20054;-81
2022/10/26 00:53:03;;;;;;;2.17;1.80;;;;;;;;;;4956680;28;20498;-81
2022/10/26 00:55:32;;;;;;;3.85;1.90;;;;;;;;;;4956697;29;20081;-78
2022/10/26 00:57:57;;;;;;;3.88;1.77;;;;;;;;;;4939198;29;20031;-80
2022/10/26 01:00:22;;;;;;;3.72;2.15;;;;;;;;;;4954991;29;20499;-80
2022/10/26 01:02:49;;;;;;;3.15;1.90;;;;;;;;;;4955501;29;20038;-80
2022/10/26 01:05:16;;;;;;;2.00;1.60;;;;;;;;;;4955261;29;20073;-80
2022/10/26 01:07:42;;;;;;;3.25;1.63;;;;;;;;;;4954928;29;20086;-79
2022/10/26 01:10:08;;;;;;;1.90;1.63;;;;;;;;;;4954923;29;20031;-78
2022/10/26 01:12:33;;;;;;;3.40;1.98;;;;;;;;;;4956030;28;20102;-80
2022/10/26 01:14:59;;;;;;;1.80;1.65;;;;;;;;;;4955331;29;20093;-81
2022/10/26 01:17:50;;;;;;;2.83;1.90;;;;;;;;;;4938617;29;20027;-80
2022/10/26 01:20:38;;;;;;;2.40;1.70;;;;;;;;;;4954681;29;20061;-79
2022/10/26 01:23:15;;;;;;;1.92;1.60;;;;;;;;;;4938519;29;20384;-80
2022/10/26 01:25:49;;;;;;;3.00;2.40;;;;;;;;;;4956012;28;20075;-79
2022/10/26 01:28:39;;;;;;;2.35;1.77;;;;;;;;;;4955721;28;20039;-80
2022/10/26 01:31:09;;;;;;;3.72;2.15;;;;;;;;;;4954856;29;20454;-80
2022/10/26 01:33:40;;;;;;;4.20;2.00;;;;;;;;;;4954455;29;20114;-80
2022/10/26 01:36:32;;;;;;;3.70;1.92;;;;;;;;;;4954446;29;20023;-80
2022/10/26 01:39:05;;;;;;;3.90;2.28;;;;;;;;;;4954302;28;20031;-79
2022/10/26 01:41:41;;;;;;;6.15;1.88;;;;;;;;;;4954302;28;20031;-79
2022/10/26 01:44:15;;;;;;;4.10;2.10;;;;;;;;;;4954200;29;20202;-79
2022/10/26 01:46:44;;;;;;;2.58;1.85;;;;;;;;;;4938231;29;20034;-79
2022/10/26 01:49:11;;;;;;;1.80;1.55;;;;;;;;;;4954228;29;20031;-79
2022/10/26 01:51:42;;;;;;;3.85;2.03;;;;;;;;;;4954673;28;20030;-79
2022/10/26 01:54:07;;;;;;;2.20;1.70;;;;;;;;;;4954543;29;20031;-79
2022/10/26 01:56:39;;;;;;;5.00;1.92;;;;;;;;;;4938113;28;20042;-79
2022/10/26 01:59:37;;;;;;;2.22;1.55;;;;;;;;;;4954160;29;20491;-79
2022/10/26 02:02:25;;;;;;;3.30;2.10;;;;;;;;;;4960032;28;20047;-80
2022/10/26 02:05:14;;;;;;;3.45;1.80;;;;;;;;;;4955274;28;20035;-79
2022/10/26 02:07:51;;;;;;;3.15;1.83;;;;;;;;;;4957136;28;20043;-78
2022/10/26 02:10:20;;;;;;;3.47;1.90;;;;;;;;;;4954021;29;20038;-80
2022/10/26 02:13:24;;;;;;;3.78;2.10;;;;;;;;;;4955185;28;20027;-79
2022/10/26 02:15:49;;;;;;;;;;;;;;;;;;4955511;29;20537;-77
2022/10/26 02:18:18;;;;;;;3.77;1.90;;;;;;;;;;4955235;29;19910;-79
2022/10/26 02:20:47;;;;;;;3.30;1.88;;;;;;;;;;4955009;28;20036;-79
2022/10/26 02:23:13;;;;;;;4.40;2.00;;;;;;;;;;4954088;29;20027;-79
2022/10/26 02:25:43;;;;;;;3.05;1.88;;;;;;;;;;4954168;29;20031;-79
2022/10/26 02:28:13;;;;;;;9.93;1.65;;;;;;;;;;4953831;29;20174;-80
2022/10/26 02:30:39;;;;;;;5.32;1.70;;;;;;;;;;4954109;29;20031;-79
2022/10/26 02:33:06;;;;;;;3.35;1.80;;;;;;;;;;4954080;29;20038;-79
2022/10/26 02:35:34;;;;;;;4.68;2.22;;;;;;;;;;4953737;29;20114;-79
2022/10/26 02:38:01;;;;;;;2.45;1.50;;;;;;;;;;4937782;29;20399;-79
2022/10/26 02:40:28;;;;;;;4.50;1.80;;;;;;;;;;4937648;29;20482;-79
2022/10/26 02:42:56;;;;;;;4.20;1.60;;;;;;;;;;4953905;29;20027;-79
2022/10/26 02:45:25;;;;;;;2.75;1.80;;;;;;;;;;4953894;29;20466;-79
2022/10/26 02:47:51;;;;;;;2.60;1.70;;;;;;;;;;4953998;29;20490;-79
2022/10/26 02:50:18;;;;;;;3.30;1.80;;;;;;;;;;4953867;29;20110;-79
2022/10/26 02:53:21;;;;;;;5.63;2.00;;;;;;;;;;4954782;28;20113;-79
2022/10/26 02:55:48;;;;;;;3.17;2.05;;;;;;;;;;4957353;29;20518;-79
2022/10/26 02:58:19;;;;;;;3.13;1.80;;;;;;;;;;4957272;29;20031;-79
2022/10/26 03:00:45;;;;;;;2.35;1.98;;;;;;;;;;4941169;29;20040;-79
2022/10/26 03:03:10;;;;;;;3.75;1.90;;;;;;;;;;4957150;29;20058;-79
2022/10/26 03:05:41;;;;;;;4.68;1.75;;;;;;;;;;4957801;28;20059;-80
2022/10/26 03:08:06;;;;;;;2.33;1.58;;;;;;;;;;4958276;28;20031;-79
2022/10/26 03:10:32;;;;;;;4.05;1.95;;;;;;;;;;4958854;28;20038;-81
2022/10/26 03:12:58;;;;;;;5.32;1.90;;;;;;;;;;4958779;29;20031;-80
2022/10/26 03:15:23;;;;;;;2.83;1.70;;;;;;;;;;4956924;28;20031;-79
2022/10/26 03:17:48;;;;;;;3.13;1.98;;;;;;;;;;4958330;28;20439;-80
2022/10/26 03:20:14;;;;;;;2.50;2.05;;;;;;;;;;4958066;28;20053;-79
2022/10/26 03:22:39;;;;;;;4.30;1.70;;;;;;;;;;4941194;28;20054;-79
2022/10/26 03:25:05;;;;;;;3.72;1.70;;;;;;;;;;4958058;28;20031;-79
2022/10/26 03:27:30;;;;;;;2.95;1.98;;;;;;;;;;4957932;28;20151;-79
2022/10/26 03:29:56;;;;;;;4.68;2.05;;;;;;;;;;4957295;29;20109;-79
2022/10/26 03:32:22;;;;;;;5.03;1.80;;;;;;;;;;4958064;28;20032;-79
2022/10/26 03:34:47;;;;;;;5.43;1.80;;;;;;;;;;4956974;29;20078;-79
2022/10/26 03:37:12;;;;;;;2.50;1.50;;;;;;;;;;4956610;28;20517;-79
2022/10/26 03:39:38;;;;;;;3.40;1.88;;;;;;;;;;4957147;29;20027;-79
2022/10/26 03:42:03;;;;;;;3.20;1.75;;;;;;;;;;4956792;29;20058;-79
2022/10/26 03:44:30;;;;;;;2.85;1.90;;;;;;;;;;4956323;28;20047;-79
2022/10/26 03:46:55;;;;;;;5.25;2.30;;;;;;;;;;4956748;29;20082;-80
2022/10/26 03:49:20;;;;;;;4.30;1.73;;;;;;;;;;4956933;29;20035;-79
2022/10/26 03:51:46;;;;;;;2.38;1.90;;;;;;;;;;4958129;28;20035;-80
2022/10/26 03:54:11;;;;;;;5.70;2.20;;;;;;;;;;4956656;29;20043;-80
2022/10/26 03:56:36;;;;;;;4.10;1.90;;;;;;;;;;4957842;28;20034;-79
2022/10/26 03:59:02;;;;;;;2.53;1.80;;;;;;;;;;4956538;29;20031;-79
2022/10/26 04:01:27;;;;;;;4.55;2.03;;;;;;;;;;4955952;28;20466;-79
2022/10/26 04:03:52;;;;;;;4.72;2.28;;;;;;;;;;4955670;28;20050;-79
2022/10/26 04:06:18;;;;;;;3.08;1.70;;;;;;;;;;4955443;29;20031;-79
2022/10/26 04:08:43;;;;;;;2.80;1.70;;;;;;;;;;4940177;29;20031;-79
2022/10/26 04:11:08;;;;;;;3.30;1.70;;;;;;;;;;4956336;29;20038;-79
2022/10/26 04:13:34;;;;;;;3.75;1.98;;;;;;;;;;4957376;28;20034;-80
2022/10/26 04:15:59;;;;;;;2.70;1.83;;;;;;;;;;4957104;28;20398;-79
2022/10/26 04:18:24;;;;;;;3.78;1.70;;;;;;;;;;4939971;29;20035;-79
2022/10/26 04:20:50;;;;;;;3.15;1.80;;;;;;;;;;4957131;28;20617;-79
2022/10/26 04:23:17;;;;;;;3.63;1.80;;;;;;;;;;4955782;28;20042;-79
2022/10/26 04:25:42;;;;;;;2.00;1.60;;;;;;;;;;4956225;29;20114;-79
2022/10/26 04:28:09;;;;;;;3.67;2.03;;;;;;;;;;4956454;29;20059;-79
2022/10/26 04:30:35;;;;;;;7.25;2.00;;;;;;;;;;4956141;29;20446;-79
2022/10/26 04:33:00;;;;;;;2.63;1.83;;;;;;;;;;4955986;29;20055;-78
2022/10/26 04:35:26;;;;;;;11.18;3.08;;;;;;;;;;4956880;28;20045;-79
2022/10/26 04:38:00;;;;;;;6.25;2.38;;;;;;;;;;4937789;29;20031;-79
2022/10/26 04:40:26;;;;;;;8.68;2.38;;;;;;;;;;4955000;29;20102;-79
2022/10/26 04:42:52;;;;;;;8.45;2.42;;;;;;;;;;4954810;29;20038;-79
2022/10/26 04:45:17;;;;;;;8.07;2.97;;;;;;;;;;4954810;28;20035;-79
2022/10/26 04:47:43;;;;;;;11.98;2.70;;;;;;;;;;4955983;28;20043;-80
2022/10/26 04:50:10;;;;;;;8.57;2.97;;;;;;;;;;4954733;28;20114;-80
2022/10/26 04:52:35;;;;;;;9.23;3.40;;;;;;;;;;4954596;28;20035;-79
2022/10/26 04:55:04;;;;;;;14.60;3.17;;;;;;;;;;4955853;28;20054;-79
2022/10/26 04:57:30;;;;;;;11.13;3.10;;;;;;;;;;4939094;28;20394;-79
2022/10/26 04:59:56;;;;;;;9.13;3.33;;;;;;;;;;4954461;29;20031;-80
2022/10/26 05:02:21;;;;;;;17.02;4.82;;;;;;;;;;4955747;28;20047;-79
2022/10/26 05:04:47;;;;;;;16.48;4.75;;;;;;;;;;4955629;28;20031;-78
2022/10/26 05:07:12;;;;;;;15.57;4.20;;;;;;;;;;4954286;29;20032;-79
2022/10/26 05:09:37;;;;;;;15.93;5.03;;;;;;;;;;4955598;28;20031;-78
2022/10/26 05:12:03;;;;;;;11.15;4.38;;;;;;;;;;4955504;28;20106;-78
2022/10/26 05:14:28;;;;;;;13.90;4.72;;;;;;;;;;4955700;28;20035;-79
2022/10/26 05:16:55;;;;;;;12.75;4.38;;;;;;;;;;4953910;28;20039;-78
2022/10/26 05:19:20;;;;;;;12.77;3.97;;;;;;;;;;4955567;28;20035;-79
2022/10/26 05:21:46;;;;;;;14.02;4.68;;;;;;;;;;4955423;28;20036;-79
2022/10/26 05:24:11;;;;;;;14.95;4.43;;;;;;;;;;4953914;29;20124;-79
2022/10/26 05:26:36;;;;;;;13.60;4.32;;;;;;;;;;4955334;28;20051;-79
2022/10/26 05:29:02;;;;;;;10.20;3.60;;;;;;;;;;4954625;28;20035;-79
2022/10/26 05:31:27;;;;;;;9.60;3.95;;;;;;;;;;4954689;29;20074;-79
2022/10/26 05:33:52;;;;;;;12.30;3.85;;;;;;;;;;4955842;28;20438;-79
2022/10/26 05:36:18;;;;;;;13.63;3.97;;;;;;;;;;4954928;29;20110;-78
2022/10/26 05:38:44;;;;;;;13.63;3.88;;;;;;;;;;4937511;29;20043;-79
2022/10/26 05:41:09;;;;;;;10.50;3.70;;;;;;;;;;4953899;29;20106;-78
2022/10/26 05:43:34;;;;;;;12.32;3.25;;;;;;;;;;4969798;28;20046;-78
2022/10/26 05:46:00;;;;;;;8.52;3.10;;;;;;;;;;4954882;28;20039;-78
2022/10/26 05:48:25;;;;;;;8.98;3.08;;;;;;;;;;4955185;28;20035;-78
2022/10/26 05:50:50;;;;;;;9.10;3.17;;;;;;;;;;4954863;28;20378;-78
2022/10/26 05:53:16;;;;;;;6.45;2.72;;;;;;;;;;4937546;29;20043;-78
2022/10/26 05:55:42;;;;;;;5.97;3.08;;;;;;;;;;4937639;28;20035;-78
2022/10/26 05:58:10;;;;;;;8.70;3.28;;;;;;;;;;4954811;28;20042;-79
2022/10/26 06:00:36;;;;;;;8.32;2.70;;;;;;;;;;4953462;29;20533;-78
2022/10/26 06:03:16;;;;;;;8.30;2.90;;;;;;;;;;4937450;28;20036;-78
2022/10/26 06:05:51;;;;;;;6.80;3.05;;;;;;;;;;4954728;28;20537;-79
2022/10/26 06:08:16;;;;;;;6.32;2.88;;;;;;;;;;4954464;28;20041;-79
2022/10/26 06:10:42;;;;;;;9.85;2.72;;;;;;;;;;4953592;28;20125;-78
2022/10/26 06:13:08;;;;;;;7.88;2.83;;;;;;;;;;4953404;29;20030;-78
2022/10/26 06:15:46;;;;;;;7.78;2.75;;;;;;;;;;4953343;28;20037;-78
2022/10/26 06:18:34;;;;;;;4.72;2.30;;;;;;;;;;4954504;28;20023;-78
2022/10/26 06:21:22;;;;;;;5.72;2.70;;;;;;;;;;4954403;29;20035;-79
2022/10/26 06:24:20;;;;;;;7.53;2.60;;;;;;;;;;4953017;29;20479;-78
2022/10/26 06:27:04;;;;;;;7.45;2.33;;;;;;;;;;4956325;28;20083;-79
2022/10/26 06:29:55;;;;;;;6.75;2.70;;;;;;;;;;4957672;28;20106;-79
2022/10/26 06:32:23;;;;;;;5.80;2.55;;;;;;;;;;4957127;29;20431;-79
2022/10/26 06:34:52;;;;;;;8.43;2.53;;;;;;;;;;4957283;29;20180;-79
2022/10/26 06:37:17;;;;;;;7.30;2.83;;;;;;;;;;4958098;28;20028;-77
2022/10/26 06:39:45;;;;;;;6.20;2.50;;;;;;;;;;4941536;29;20122;-78
2022/10/26 06:42:11;;;;;;;9.10;2.40;;;;;;;;;;4958091;29;20090;-79
2022/10/26 06:44:37;;;;;;;6.15;2.35;;;;;;;;;;4958992;28;20039;-77
2022/10/26 06:47:06;;;;;;;5.13;2.58;;;;;;;;;;4957652;28;20050;-77
2022/10/26 06:49:38;;;;;;;5.55;2.35;;;;;;;;;;4941602;29;20170;-77
2022/10/26 06:52:06;;;;;;;6.32;2.35;;;;;;;;;;4957643;28;20038;-77
2022/10/26 06:55:01;;;;;;;5.13;2.33;;;;;;;;;;4958981;28;20053;-78
2022/10/26 06:57:32;;;;;;;5.15;2.20;;;;;;;;;;4962479;28;20047;-78
2022/10/26 07:00:02;;;;;;;5.70;2.35;;;;;;;;;;4958486;28;20046;-77
2022/10/26 07:02:27;;;;;;;11.38;2.35;;;;;;;;;;4957975;29;20023;-77
2022/10/26 07:04:53;;;;;;;4.80;2.15;;;;;;;;;;4957587;29;20034;-77
2022/10/26 07:07:23;;;;;;;4.93;2.40;;;;;;;;;;4958798;28;20121;-77
2022/10/26 07:09:49;;;;;;;5.40;2.00;;;;;;;;;;4957149;28;20031;-77
2022/10/26 07:12:14;;;;;;;7.57;2.20;;;;;;;;;;4958764;28;20122;-79
2022/10/26 07:14:40;;;;;;;3.08;2.05;;;;;;;;;;4957467;29;20031;-77
2022/10/26 07:17:06;;;;;;;8.35;2.30;;;;;;;;;;4941020;28;20450;-79
2022/10/26 07:19:31;;;;;;;5.25;2.10;;;;;;;;;;4956951;29;20031;-79
2022/10/26 07:22:00;;;;;;;4.32;2.05;;;;;;;;;;4958579;28;20035;-79
2022/10/26 07:24:26;;;;;;;8.40;2.30;;;;;;;;;;4941290;28;20027;-78
2022/10/26 07:26:55;;;;;;;6.47;2.58;;;;;;;;;;4956972;29;20118;-79
2022/10/26 07:29:22;;;;;;;3.92;2.10;;;;;;;;;;4957273;29;20023;-79
2022/10/26 07:31:47;;;;;;;5.47;2.78;;;;;;;;;;4940955;29;20041;-78
2022/10/26 07:34:12;;;;;;;4.80;2.38;;;;;;;;;;4956682;29;20031;-78
2022/10/26 07:36:38;;;;;;;3.13;2.22;;;;;;;;;;4956797;29;20470;-78
2022/10/26 07:39:04;;;;;;;4.45;1.88;;;;;;;;;;4958070;28;20035;-78
2022/10/26 07:41:30;;;;;;;4.65;2.30;;;;;;;;;;4956993;29;20043;-79
2022/10/26 07:43:55;;;;;;;3.35;1.85;;;;;;;;;;4956873;29;20127;-79
2022/10/26 07:46:21;;;;;;;4.97;1.80;;;;;;;;;;4956573;29;20031;-78
2022/10/26 07:48:46;;;;;;;3.63;1.70;;;;;;;;;;4956154;28;20027;-78
2022/10/26 07:51:11;;;;;;;3.83;1.83;;;;;;;;;;4956450;29;20049;-78
2022/10/26 07:53:37;;;;;;;8.85;2.33;;;;;;;;;;4940432;29;20593;-78
2022/10/26 07:56:02;;;;;;;6.18;2.30;;;;;;;;;;4956314;29;20084;-78
2022/10/26 07:58:28;;;;;;;5.63;2.25;;;;;;;;;;4958081;28;20407;-79
2022/10/26 08:00:54;;;;;;;9.10;2.20;;;;;;;;;;4956344;29;20051;-79
2022/10/26 08:03:19;;;;;;;9.43;1.90;;;;;;;;;;4956171;29;20047;-80
2022/10/26 08:05:54;;;;;;;5.50;2.05;;;;;;;;;;4956498;29;20023;-79
2022/10/26 08:08:20;;;;;;;3.70;1.98;;;;;;;;;;4956217;28;20031;-79
2022/10/26 08:10:46;;;;;;;9.40;2.33;;;;;;;;;;4956146;29;20030;-79
2022/10/26 08:13:12;;;;;;;6.05;1.85;;;;;;;;;;4956111;28;20389;-79
2022/10/26 08:15:37;;;;;;;5.22;2.13;;;;;;;;;;4956322;29;20440;-79
2022/10/26 08:18:03;;;;;;;3.22;1.88;;;;;;;;;;4972127;28;20027;-79
2022/10/26 08:20:29;;;;;;;4.28;1.88;;;;;;;;;;4956095;29;20098;-79
2022/10/26 08:22:58;;;;;;;4.25;1.90;;;;;;;;;;4955822;29;20055;-80
2022/10/26 08:25:24;;;;;;;6.85;2.15;;;;;;;;;;4955958;29;20037;-77
2022/10/26 08:27:49;;;;;;;6.63;1.65;;;;;;;;;;4957079;28;20031;-78
2022/10/26 08:30:15;;;;;;;7.85;2.10;;;;;;;;;;4939755;29;20031;-78
2022/10/26 08:32:41;;;;;;;4.72;2.15;;;;;;;;;;4939752;29;20126;-78
2022/10/26 08:35:07;;;;;;;4.43;2.03;;;;;;;;;;4956259;29;20054;-78
2022/10/26 08:37:33;;;;;;;4.32;1.88;;;;;;;;;;4955486;29;20066;-79
2022/10/26 08:39:58;;;;;;;6.07;2.10;;;;;;;;;;4957080;29;20070;-78
2022/10/26 08:42:28;;;;;;;5.78;1.85;;;;;;;;;;4939547;28;20035;-77
2022/10/26 08:44:59;;;;;;;8.88;2.05;;;;;;;;;;4956791;28;20390;-78
2022/10/26 08:47:28;;;;;;;5.30;2.00;;;;;;;;;;4955577;29;20019;-78
2022/10/26 08:50:13;;;;;;;4.18;1.80;;;;;;;;;;4955452;29;20023;-78
2022/10/26 08:52:57;;;;;;;9.07;2.05;;;;;;;;;;4939382;28;20093;-78
2022/10/26 08:55:25;;;;;;;9.95;2.22;;;;;;;;;;4939557;28;20071;-78
2022/10/26 08:57:51;;;;;;;7.50;1.95;;;;;;;;;;4955399;29;20054;-78
2022/10/26 09:00:19;;;;;;;7.82;1.90;;;;;;;;;;4939211;28;20118;-78
2022/10/26 09:02:49;;;;;;;4.95;2.00;;;;;;;;;;4955449;29;20031;-78
2022/10/26 09:05:16;;;;;;;4.35;1.70;;;;;;;;;;4956383;28;20079;-79
2022/10/26 09:07:52;;;;;;;5.55;2.00;;;;;;;;;;4955394;29;20110;-78
2022/10/26 09:10:35;;;;;;;4.43;1.90;;;;;;;;;;4955037;29;20023;-78
2022/10/26 09:13:27;;;;;;;7.13;2.33;;;;;;;;;;4955042;29;20074;-78
2022/10/26 09:16:01;;;;;;;5.70;1.90;;;;;;;;;;4939210;28;20027;-78
2022/10/26 09:19:03;;;;;;;3.78;1.65;;;;;;;;;;4955265;29;20059;-78
2022/10/26 09:21:31;;;;;;;7.43;1.95;;;;;;;;;;4956192;28;20031;-78
2022/10/26 09:24:13;;;;;;;3.70;1.77;;;;;;;;;;4956329;28;20062;-78
2022/10/26 09:27:07;;;;;;;8.60;1.90;;;;;;;;;;4938817;28;20031;-78
2022/10/26 09:29:40;;;;;;;8.93;1.83;;;;;;;;;;4955495;29;20031;-78
2022/10/26 09:32:13;;;;;;;3.75;1.63;;;;;;;;;;4954888;29;20031;-78
2022/10/26 09:34:43;;;;;;;4.72;2.08;;;;;;;;;;4954850;29;20034;-78
2022/10/26 09:37:19;;;;;;;4.57;2.13;;;;;;;;;;4938759;28;20398;-78
2022/10/26 09:39:57;;;;;;;9.52;2.30;;;;;;;;;;4955786;28;20030;-78
2022/10/26 09:42:44;;;;;;;9.30;3.03;;;;;;;;;;4954797;29;20023;-78
2022/10/26 09:45:36;;;;;;;8.40;2.60;;;;;;;;;;4957147;28;20130;-78
2022/10/26 09:48:15;;;;;;;8.07;2.72;;;;;;;;;;4954947;29;20114;-78
2022/10/26 09:50:45;;;;;;;7.72;2.60;;;;;;;;;;4955754;28;20034;-78
2022/10/26 09:53:10;;;;;;;5.95;2.08;;;;;;;;;;4955529;28;20159;-78
2022/10/26 09:55:41;;;;;;;8.48;2.20;;;;;;;;;;4955727;28;20495;-78
2022/10/26 09:58:13;;;;;;;8.98;2.47;;;;;;;;;;4954297;29;20423;-78
2022/10/26 10:00:39;;;;;;;6.22;2.00;;;;;;;;;;4938375;29;20055;-78
2022/10/26 10:03:17;;;;;;;11.27;2.30;;;;;;;;;;4954798;28;20376;-78
2022/10/26 10:05:42;;;;;;;8.38;2.25;;;;;;;;;;4954244;29;20023;-78
2022/10/26 10:08:09;;;;;;;6.47;2.22;;;;;;;;;;4955355;28;20118;-78
2022/10/26 10:10:34;;;;;;;8.00;2.03;;;;;;;;;;4955290;28;20050;-78
2022/10/26 10:13:14;;;;;;;9.18;2.40;;;;;;;;;;4954676;29;20467;-77
2022/10/26 10:15:39;;;;;;;4.88;2.08;;;;;;;;;;4954176;29;20035;-78
2022/10/26 10:18:05;;;;;;;5.50;2.33;;;;;;;;;;4954054;29;20465;-78
2022/10/26 10:20:31;;;;;;;9.88;2.10;;;;;;;;;;4953903;28;20038;-77
2022/10/26 10:23:02;;;;;;;9.13;2.10;;;;;;;;;;4954083;28;20486;-77
2022/10/26 10:25:34;;;;;;;8.75;1.90;;;;;;;;;;4969988;28;20102;-77
2022/10/26 10:28:00;;;;;;;10.18;2.42;;;;;;;;;;4937981;28;20126;-78
2022/10/26 10:30:32;;;;;;;3.90;1.98;;;;;;;;;;4954271;29;20058;-77
2022/10/26 10:33:11;;;;;;;6.38;1.95;;;;;;;;;;4954133;29;20375;-77
2022/10/26 10:35:39;;;;;;;5.10;2.00;;;;;;;;;;4955093;28;20031;-77
2022/10/26 10:38:05;;;;;;;3.25;1.73;;;;;;;;;;4937944;28;20398;-77
2022/10/26 10:40:30;;;;;;;10.27;2.30;;;;;;;;;;4937941;28;20036;-77
2022/10/26 10:43:13;;;;;;;10.20;2.20;;;;;;;;;;4937800;29;20126;-77
2022/10/26 10:45:39;;;;;;;7.95;1.90;;;;;;;;;;4955144;28;20434;-77
2022/10/26 10:48:10;;;;;;;7.72;2.03;;;;;;;;;;4955288;28;20494;-77
2022/10/26 10:50:36;;;;;;;5.97;1.80;;;;;;;;;;4955154;28;20035;-78
2022/10/26 10:53:34;;;;;;;5.50;1.80;;;;;;;;;;4937761;28;20035;-78
2022/10/26 10:56:29;;;;;;;5.82;1.98;;;;;;;;;;4941065;29;20043;-77
2022/10/26 10:59:23;;;;;;;4.18;1.90;;;;;;;;;;4954878;28;20023;-78
2022/10/26 11:02:10;;;;;;;4.35;1.83;;;;;;;;;;4937661;28;20106;-78
2022/10/26 11:05:11;;;;;;;4.53;1.60;;;;;;;;;;4954487;28;20031;-80
2022/10/26 11:07:45;;;;;;;3.80;1.80;;;;;;;;;;4955125;28;20039;-79
2022/10/26 11:10:14;;;;;;;5.38;1.83;;;;;;;;;;4953649;29;20028;-79
2022/10/26 11:12:47;;;;;;;4.25;1.88;;;;;;;;;;4953953;29;20389;-81
2022/10/26 11:15:17;;;;;;;10.35;2.72;;;;;;;;;;4940037;28;20054;-77
2022/10/26 11:17:55;;;;;;;7.93;2.20;;;;;;;;;;4957230;29;20023;-77
2022/10/26 11:20:23;;;;;;;5.30;2.55;;;;;;;;;;4957128;29;20367;-76
2022/10/26 11:22:52;;;;;;;6.32;2.20;;;;;;;;;;4957154;29;20038;-76
2022/10/26 11:25:24;;;;;;;5.47;2.10;;;;;;;;;;4956941;28;20541;-77
2022/10/26 11:27:55;;;;;;;8.32;2.55;;;;;;;;;;4957055;29;20082;-76
2022/10/26 11:30:24;;;;;;;8.45;2.10;;;;;;;;;;4941229;28;20134;-77
2022/10/26 11:33:22;;;;;;;7.75;2.05;;;;;;;;;;4958088;28;20435;-77
2022/10/26 11:36:00;;;;;;;7.78;2.40;;;;;;;;;;4961862;28;20043;-76
2022/10/26 11:38:34;;;;;;;9.70;2.40;;;;;;;;;;4958605;28;20082;-76
2022/10/26 11:41:07;;;;;;;7.15;2.08;;;;;;;;;;4958248;28;20200;-77
2022/10/26 11:43:55;;;;;;;8.35;2.40;;;;;;;;;;4956632;29;20034;-77
2022/10/26 11:46:36;;;;;;;6.30;2.03;;;;;;;;;;4940527;28;20393;-77
2022/10/26 11:49:08;;;;;;;6.50;2.17;;;;;;;;;;4940549;29;20122;-76
2022/10/26 11:51:47;;;;;;;10.90;2.58;;;;;;;;;;4956866;29;20046;-76
2022/10/26 11:54:22;;;;;;;9.80;2.35;;;;;;;;;;4940418;29;20027;-77
2022/10/26 11:56:48;;;;;;;10.52;2.03;;;;;;;;;;4956348;29;20050;-75
2022/10/26 11:59:19;;;;;;;6.85;2.22;;;;;;;;;;4940626;29;20455;-77
2022/10/26 12:01:57;;;;;;;13.13;2.45;;;;;;;;;;4956526;28;20495;-77
2022/10/26 12:04:27;;;;;;;9.70;2.50;;;;;;;;;;4956825;29;20042;-76
2022/10/26 12:06:53;;;;;;;8.98;2.47;;;;;;;;;;4956951;29;20455;-77
2022/10/26 12:09:33;;;;;;;10.90;2.30;;;;;;;;;;4940294;29;20031;-77
2022/10/26 12:12:16;;;;;;;10.77;2.55;;;;;;;;;;4940201;28;20031;-76
2022/10/26 12:15:02;;;;;;;10.75;2.78;;;;;;;;;;4956420;29;20019;-76
2022/10/26 12:17:35;;;;;;;9.68;2.20;;;;;;;;;;4959988;28;20035;-76
2022/10/26 12:20:04;;;;;;;8.63;2.22;;;;;;;;;;4956757;28;20426;-76
2022/10/26 12:22:33;;;;;;;9.75;2.35;;;;;;;;;;4957566;28;20071;-76
2022/10/26 12:25:14;;;;;;;8.65;2.17;;;;;;;;;;4955828;28;20035;-76
2022/10/26 12:27:39;;;;;;;9.85;2.30;;;;;;;;;;4957028;29;20111;-76
2022/10/26 12:30:11;;;;;;;7.20;2.42;;;;;;;;;;4957401;28;20118;-76
2022/10/26 12:32:36;;;;;;;3.53;1.98;;;;;;;;;;4957188;28;20103;-76
2022/10/26 12:35:30;;;;;;;15.68;2.83;;;;;;;;;;4957517;28;20427;-76
2022/10/26 12:37:56;;;;;;;14.65;2.33;;;;;;;;;;4955653;28;20049;-76
2022/10/26 12:40:42;;;;;;;10.60;2.33;;;;;;;;;;4956256;29;20455;-77
2022/10/26 12:43:13;;;;;;;5.13;2.60;;;;;;;;;;4956143;29;20124;-76
2022/10/26 12:45:46;;;;;;;8.07;2.25;;;;;;;;;;4956775;28;20102;-76
2022/10/26 12:48:24;;;;;;;8.15;2.10;;;;;;;;;;4955833;29;20082;-77
2022/10/26 12:50:51;;;;;;;7.07;2.20;;;;;;;;;;4955930;28;20086;-76
2022/10/26 12:53:18;;;;;;;7.38;2.10;;;;;;;;;;4955453;29;20061;-76
2022/10/26 12:55:46;;;;;;;6.75;2.13;;;;;;;;;;4956758;28;20114;-76
2022/10/26 12:58:34;;;;;;;5.97;2.03;;;;;;;;;;4956523;28;20488;-77
2022/10/26 13:00:59;;;;;;;4.65;1.95;;;;;;;;;;4955167;29;20051;-76
2022/10/26 13:03:46;;;;;;;9.75;2.00;;;;;;;;;;4956405;28;20031;-76
2022/10/26 13:06:33;;;;;;;4.25;1.83;;;;;;;;;;4955152;29;20023;-76
2022/10/26 13:09:07;;;;;;;4.18;2.10;;;;;;;;;;4955092;29;20031;-76
2022/10/26 13:11:41;;;;;;;3.10;1.98;;;;;;;;;;4955726;29;20154;-76
2022/10/26 13:14:18;;;;;;;5.82;1.90;;;;;;;;;;4955705;29;20059;-76
2022/10/26 13:16:44;;;;;;;4.72;1.85;;;;;;;;;;4955373;29;20023;-76
2022/10/26 13:19:22;;;;;;;5.60;1.73;;;;;;;;;;4955297;29;20043;-76
2022/10/26 13:21:48;;;;;;;3.35;1.95;;;;;;;;;;4954895;29;20394;-76
2022/10/26 13:24:14;;;;;;;5.78;2.10;;;;;;;;;;4954786;29;20123;-76
2022/10/26 13:27:04;;;;;;;15.02;2.25;;;;;;;;;;4955324;28;20035;-76
2022/10/26 13:29:30;;;;;;;6.95;1.88;;;;;;;;;;4954690;29;20027;-78
2022/10/26 13:31:56;;;;;;;6.63;1.77;;;;;;;;;;4938689;29;20051;-79
2022/10/26 13:34:24;;;;;;;12.55;2.08;;;;;;;;;;4938700;28;20061;-80
2022/10/26 13:37:06;;;;;;;7.00;1.80;;;;;;;;;;4938565;28;20054;-80
2022/10/26 13:39:36;;;;;;;4.68;1.98;;;;;;;;;;4938849;28;20023;-80
2022/10/26 13:42:02;;;;;;;5.78;2.03;;;;;;;;;;4954943;29;20502;-79
2022/10/26 13:45:01;;;;;;;3.38;2.58;;;;;;;;;;4954720;29;20055;-79
2022/10/26 13:47:38;;;;;;;8.40;1.88;;;;;;;;;;4955532;28;20097;-78
2022/10/26 13:50:10;;;;;;;5.07;1.88;;;;;;;;;;4938652;28;20058;-79
2022/10/26 13:52:40;;;;;;;6.68;1.90;;;;;;;;;;4938592;29;20059;-78
2022/10/26 13:55:36;;;;;;;6.80;1.90;;;;;;;;;;4938321;29;20481;-78
2022/10/26 13:58:23;;;;;;;7.07;1.90;;;;;;;;;;4958416;28;20126;-78
2022/10/26 14:01:12;;;;;;;5.78;1.90;;;;;;;;;;4955601;28;20055;-77
2022/10/26 14:03:39;;;;;;;5.82;1.90;;;;;;;;;;4954295;29;20024;-78
2022/10/26 14:06:16;;;;;;;5.75;1.75;;;;;;;;;;4954306;29;20027;-78
2022/10/26 14:08:43;;;;;;;10.07;1.80;;;;;;;;;;4954253;29;20482;-78
2022/10/26 14:11:18;;;;;;;6.05;1.88;;;;;;;;;;4954495;29;20164;-80
2022/10/26 14:13:45;;;;;;;4.78;1.92;;;;;;;;;;4954626;29;20050;-79
2022/10/26 14:16:12;;;;;;;5.43;1.75;;;;;;;;;;4954194;29;20462;-78
2022/10/26 14:18:38;;;;;;;5.10;2.05;;;;;;;;;;4954427;29;20482;-80
2022/10/26 14:21:14;;;;;;;5.05;1.83;;;;;;;;;;4955453;28;20117;-79
2022/10/26 14:23:48;;;;;;;6.80;1.95;;;;;;;;;;4953963;28;20410;-79
2022/10/26 14:26:22;;;;;;;7.22;1.70;;;;;;;;;;4955202;28;20027;-79
2022/10/26 14:28:51;;;;;;;6.35;2.08;;;;;;;;;;4954021;29;20023;-79
2022/10/26 14:31:23;;;;;;;8.70;2.47;;;;;;;;;;4937970;29;20027;-79
2022/10/26 14:33:48;;;;;;;9.05;2.10;;;;;;;;;;4937982;29;20026;-79
2022/10/26 14:36:14;;;;;;;6.47;1.70;;;;;;;;;;4955149;29;20110;-78
2022/10/26 14:38:49;;;;;;;5.80;2.00;;;;;;;;;;4953841;29;20046;-79
2022/10/26 14:41:16;;;;;;;5.25;2.00;;;;;;;;;;4969991;28;20027;-79
2022/10/26 14:43:42;;;;;;;5.70;1.80;;;;;;;;;;4937857;28;20034;-79
2022/10/26 14:46:18;;;;;;;6.05;1.85;;;;;;;;;;4938058;29;20028;-79
2022/10/26 14:48:54;;;;;;;8.65;2.05;;;;;;;;;;4954477;28;20385;-78
2022/10/26 14:51:27;;;;;;;6.18;2.00;;;;;;;;;;4959058;28;20127;-79
2022/10/26 14:53:55;;;;;;;5.03;1.83;;;;;;;;;;4958019;29;20031;-79
2022/10/26 14:56:27;;;;;;;6.93;1.90;;;;;;;;;;4957571;29;20508;-79
2022/10/26 14:58:53;;;;;;;6.70;1.90;;;;;;;;;;4957466;29;20035;-78
2022/10/26 15:01:22;;;;;;;3.78;1.70;;;;;;;;;;4958921;29;20047;-79
2022/10/26 15:03:50;;;;;;;4.82;1.80;;;;;;;;;;4958927;28;20086;-78